KHKA/HKA METAR and TAF weather

Enter ICAO airport designator
Station Type Date Time Source
KHKA METAR 2022/08/16 18:53 UTC NOAA

KHKA 161853Z AUTO 06006KT 10SM OVC100 23/18 A3003 RMK AO2 SLP165 T02330183


Station Type Date Time Source
KHKA Decoded METAR 2022/08/16 18:53 UTC NOAA

BLYTHEVILLE MUNICIPAL AIRPORT , AR, United States (KHKA) 35-56N 89-50W 78M
Aug 16, 2022 - 02:53 PM EDT / 2022.08.16 1853 UTC
Wind: from the ENE (060 degrees) at 7 MPH (6 KT):0
Visibility: 10 mile(s):0
Sky conditions: overcast
Temperature: 73.9 F (23.3 C)
Dew Point: 64.9 F (18.3 C)
Relative Humidity: 73%
Pressure (altimeter): 30.03 in. Hg (1016 hPa)
ob: KHKA 161853Z AUTO 06006KT 10SM OVC100 23/18 A3003 RMK AO2 SLP165 T02330183
cycle: 19

Station Type Date Time Source
KHKA TAF UTC NOAA

Error!

Example: see airport list